sensor_id;sensor_type;location;lat;lon;timestamp;pressure;altitude;pressure_sealevel;temperature;humidity
11343;BME280;5726;42.160;24.746;2023-09-12T00:02:00;99709.13;;;21.45;49.48
11343;BME280;5726;42.160;24.746;2023-09-12T00:04:25;99710.88;;;21.37;49.84
11343;BME280;5726;42.160;24.746;2023-09-12T00:06:51;99713.97;;;21.36;49.83
11343;BME280;5726;42.160;24.746;2023-09-12T00:09:16;99709.56;;;21.31;49.88
11343;BME280;5726;42.160;24.746;2023-09-12T00:11:41;99719.31;;;21.32;49.57
11343;BME280;5726;42.160;24.746;2023-09-12T00:14:09;99716.22;;;21.34;49.29
11343;BME280;5726;42.160;24.746;2023-09-12T00:16:34;99721.25;;;21.32;49.05
11343;BME280;5726;42.160;24.746;2023-09-12T00:19:00;99727.34;;;21.25;49.84
11343;BME280;5726;42.160;24.746;2023-09-12T00:21:25;99724.09;;;21.20;50.56
11343;BME280;5726;42.160;24.746;2023-09-12T00:23:51;99723.31;;;21.19;50.71
11343;BME280;5726;42.160;24.746;2023-09-12T00:26:16;99715.28;;;21.11;50.89
11343;BME280;5726;42.160;24.746;2023-09-12T00:28:42;99722.00;;;21.13;50.98
11343;BME280;5726;42.160;24.746;2023-09-12T00:31:07;99728.41;;;21.21;50.65
11343;BME280;5726;42.160;24.746;2023-09-12T00:33:33;99731.84;;;21.18;50.86
11343;BME280;5726;42.160;24.746;2023-09-12T00:35:58;99723.19;;;21.16;50.92
11343;BME280;5726;42.160;24.746;2023-09-12T00:38:23;99735.88;;;21.09;51.70
11343;BME280;5726;42.160;24.746;2023-09-12T00:40:49;99733.84;;;20.90;51.92
11343;BME280;5726;42.160;24.746;2023-09-12T00:43:15;99732.44;;;20.96;51.83
11343;BME280;5726;42.160;24.746;2023-09-12T00:45:41;99734.63;;;20.91;52.22
11343;BME280;5726;42.160;24.746;2023-09-12T00:48:07;99729.88;;;20.88;52.52
11343;BME280;5726;42.160;24.746;2023-09-12T00:50:34;99730.84;;;20.80;52.98
11343;BME280;5726;42.160;24.746;2023-09-12T00:53:02;99732.50;;;20.84;53.16
11343;BME280;5726;42.160;24.746;2023-09-12T00:55:29;99731.34;;;20.70;53.33
11343;BME280;5726;42.160;24.746;2023-09-12T00:57:56;99730.75;;;20.76;53.53
11343;BME280;5726;42.160;24.746;2023-09-12T01:00:22;99730.06;;;20.95;53.12
11343;BME280;5726;42.160;24.746;2023-09-12T01:02:48;99728.47;;;20.94;53.16
11343;BME280;5726;42.160;24.746;2023-09-12T01:05:15;99730.59;;;20.58;54.07
11343;BME280;5726;42.160;24.746;2023-09-12T01:07:43;99736.19;;;20.49;53.95
11343;BME280;5726;42.160;24.746;2023-09-12T01:10:09;99735.78;;;20.08;55.85
11343;BME280;5726;42.160;24.746;2023-09-12T01:12:34;99739.56;;;19.80;57.59
11343;BME280;5726;42.160;24.746;2023-09-12T01:15:00;99741.16;;;19.81;57.77
11343;BME280;5726;42.160;24.746;2023-09-12T01:17:26;99735.59;;;19.77;57.23
11343;BME280;5726;42.160;24.746;2023-09-12T01:19:52;99741.06;;;19.65;57.29
11343;BME280;5726;42.160;24.746;2023-09-12T01:25:19;99745.94;;;19.72;57.31
11343;BME280;5726;42.160;24.746;2023-09-12T01:27:55;99743.53;;;19.82;56.74
11343;BME280;5726;42.160;24.746;2023-09-12T01:30:22;99746.63;;;19.93;56.54
11343;BME280;5726;42.160;24.746;2023-09-12T01:32:48;99751.22;;;20.04;56.62
11343;BME280;5726;42.160;24.746;2023-09-12T01:35:14;99752.56;;;20.10;56.40
11343;BME280;5726;42.160;24.746;2023-09-12T01:37:39;99743.97;;;19.96;56.86
11343;BME280;5726;42.160;24.746;2023-09-12T01:40:06;99742.44;;;20.22;56.31
11343;BME280;5726;42.160;24.746;2023-09-12T01:42:37;99744.69;;;20.48;54.98
11343;BME280;5726;42.160;24.746;2023-09-12T01:45:04;99743.53;;;19.82;57.84
11343;BME280;5726;42.160;24.746;2023-09-12T01:47:30;99749.56;;;19.64;58.48
11343;BME280;5726;42.160;24.746;2023-09-12T01:49:57;99752.63;;;19.27;59.85
11343;BME280;5726;42.160;24.746;2023-09-12T01:52:27;99753.09;;;19.65;59.03
11343;BME280;5726;42.160;24.746;2023-09-12T01:54:53;99754.31;;;19.55;59.28
11343;BME280;5726;42.160;24.746;2023-09-12T01:57:19;99752.75;;;19.54;59.47
11343;BME280;5726;42.160;24.746;2023-09-12T01:59:48;99756.34;;;19.82;58.72
11343;BME280;5726;42.160;24.746;2023-09-12T02:02:15;99756.69;;;19.68;59.17
11343;BME280;5726;42.160;24.746;2023-09-12T02:04:41;99757.84;;;19.67;59.40
11343;BME280;5726;42.160;24.746;2023-09-12T02:07:06;99761.78;;;19.70;59.74
11343;BME280;5726;42.160;24.746;2023-09-12T02:09:32;99754.44;;;19.59;61.22
11343;BME280;5726;42.160;24.746;2023-09-12T02:11:57;99756.16;;;19.87;59.58
11343;BME280;5726;42.160;24.746;2023-09-12T02:14:22;99754.78;;;19.33;61.73
11343;BME280;5726;42.160;24.746;2023-09-12T02:16:48;99755.13;;;19.32;61.48
11343;BME280;5726;42.160;24.746;2023-09-12T02:19:13;99750.03;;;19.42;60.97
11343;BME280;5726;42.160;24.746;2023-09-12T02:21:39;99758.53;;;19.41;61.32
11343;BME280;5726;42.160;24.746;2023-09-12T02:24:04;99754.31;;;19.31;62.50
11343;BME280;5726;42.160;24.746;2023-09-12T02:26:30;99749.56;;;19.28;62.79
11343;BME280;5726;42.160;24.746;2023-09-12T02:28:55;99753.97;;;19.21;63.63
11343;BME280;5726;42.160;24.746;2023-09-12T02:31:20;99755.13;;;19.32;63.88
11343;BME280;5726;42.160;24.746;2023-09-12T02:33:47;99750.91;;;19.22;63.84
11343;BME280;5726;42.160;24.746;2023-09-12T02:36:13;99753.28;;;19.24;63.72
11343;BME280;5726;42.160;24.746;2023-09-12T02:38:38;99751.25;;;19.21;64.64
11343;BME280;5726;42.160;24.746;2023-09-12T02:41:03;99757.63;;;19.37;64.07
11343;BME280;5726;42.160;24.746;2023-09-12T02:43:29;99751.59;;;19.19;64.98
11343;BME280;5726;42.160;24.746;2023-09-12T02:45:55;99746.66;;;18.89;66.53
11343;BME280;5726;42.160;24.746;2023-09-12T02:48:20;99750.34;;;18.41;68.59
11343;BME280;5726;42.160;24.746;2023-09-12T02:50:46;99757.91;;;18.67;68.08
11343;BME280;5726;42.160;24.746;2023-09-12T02:53:11;99764.94;;;18.68;67.95
11343;BME280;5726;42.160;24.746;2023-09-12T02:55:41;99760.69;;;18.27;70.27
11343;BME280;5726;42.160;24.746;2023-09-12T02:58:07;99762.38;;;18.11;71.33
11343;BME280;5726;42.160;24.746;2023-09-12T03:00:32;99754.53;;;18.18;71.45
11343;BME280;5726;42.160;24.746;2023-09-12T03:02:57;99762.63;;;18.59;69.41
11343;BME280;5726;42.160;24.746;2023-09-12T03:05:23;99763.72;;;18.46;70.62
11343;BME280;5726;42.160;24.746;2023-09-12T03:07:48;99755.91;;;18.44;70.31
11343;BME280;5726;42.160;24.746;2023-09-12T03:10:14;99756.75;;;18.57;70.49
11343;BME280;5726;42.160;24.746;2023-09-12T03:12:40;99757.44;;;18.33;71.01
11343;BME280;5726;42.160;24.746;2023-09-12T03:15:06;99771.94;;;18.17;72.10
11343;BME280;5726;42.160;24.746;2023-09-12T03:17:32;99764.53;;;18.26;71.66
11343;BME280;5726;42.160;24.746;2023-09-12T03:19:57;99762.13;;;18.24;71.53
11343;BME280;5726;42.160;24.746;2023-09-12T03:22:22;99769.72;;;18.19;73.81
11343;BME280;5726;42.160;24.746;2023-09-12T03:24:48;99766.63;;;18.41;75.71
11343;BME280;5726;42.160;24.746;2023-09-12T03:27:13;99774.00;;;18.72;74.35
11343;BME280;5726;42.160;24.746;2023-09-12T03:29:39;99775.84;;;18.80;70.87
11343;BME280;5726;42.160;24.746;2023-09-12T03:32:04;99777.22;;;18.86;70.33
11343;BME280;5726;42.160;24.746;2023-09-12T03:34:30;99771.66;;;18.51;72.29
11343;BME280;5726;42.160;24.746;2023-09-12T03:36:55;99774.09;;;18.64;71.41
11343;BME280;5726;42.160;24.746;2023-09-12T03:39:20;99772.72;;;18.38;72.24
11343;BME280;5726;42.160;24.746;2023-09-12T03:41:46;99771.16;;;18.37;73.22
11343;BME280;5726;42.160;24.746;2023-09-12T03:44:11;99776.38;;;18.42;72.06
11343;BME280;5726;42.160;24.746;2023-09-12T03:46:37;99781.97;;;18.25;72.53
11343;BME280;5726;42.160;24.746;2023-09-12T03:49:02;99781.63;;;18.26;72.38
11343;BME280;5726;42.160;24.746;2023-09-12T03:51:28;99781.75;;;18.30;72.61
11343;BME280;5726;42.160;24.746;2023-09-12T03:53:54;99788.78;;;18.31;73.66
11343;BME280;5726;42.160;24.746;2023-09-12T03:56:19;99791.72;;;18.38;73.89
11343;BME280;5726;42.160;24.746;2023-09-12T03:58:45;99794.78;;;18.36;73.37
11343;BME280;5726;42.160;24.746;2023-09-12T04:01:11;99796.25;;;18.34;73.36
11343;BME280;5726;42.160;24.746;2023-09-12T04:03:36;99792.66;;;18.42;73.17
11343;BME280;5726;42.160;24.746;2023-09-12T04:06:02;99790.44;;;18.56;71.78
11343;BME280;5726;42.160;24.746;2023-09-12T04:08:27;99798.69;;;18.27;73.18
11343;BME280;5726;42.160;24.746;2023-09-12T04:10:52;99800.03;;;18.21;74.05
11343;BME280;5726;42.160;24.746;2023-09-12T04:13:18;99808.06;;;18.09;74.43
11343;BME280;5726;42.160;24.746;2023-09-12T04:15:43;99802.75;;;18.21;73.75
11343;BME280;5726;42.160;24.746;2023-09-12T04:18:10;99797.09;;;18.26;73.82
11343;BME280;5726;42.160;24.746;2023-09-12T04:20:35;99799.56;;;18.19;74.24
11343;BME280;5726;42.160;24.746;2023-09-12T04:23:02;99802.94;;;18.36;73.41
11343;BME280;5726;42.160;24.746;2023-09-12T04:25:28;99799.81;;;18.46;73.17
11343;BME280;5726;42.160;24.746;2023-09-12T04:27:53;99799.38;;;18.44;73.42
11343;BME280;5726;42.160;24.746;2023-09-12T04:30:19;99803.75;;;18.69;72.21
11343;BME280;5726;42.160;24.746;2023-09-12T04:32:44;99782.97;;;19.05;69.75
11343;BME280;5726;42.160;24.746;2023-09-12T04:35:10;99787.06;;;19.11;69.33
11343;BME280;5726;42.160;24.746;2023-09-12T04:37:35;99794.34;;;19.43;68.52
11343;BME280;5726;42.160;24.746;2023-09-12T04:40:01;99788.53;;;19.80;67.15
11343;BME280;5726;42.160;24.746;2023-09-12T04:42:26;99792.63;;;20.10;66.07
11343;BME280;5726;42.160;24.746;2023-09-12T04:44:51;99796.53;;;20.63;64.11
11343;BME280;5726;42.160;24.746;2023-09-12T04:47:17;99798.22;;;21.10;61.86
11343;BME280;5726;42.160;24.746;2023-09-12T04:49:43;99795.47;;;20.79;60.62
11343;BME280;5726;42.160;24.746;2023-09-12T04:52:09;99788.72;;;20.62;62.39
11343;BME280;5726;42.160;24.746;2023-09-12T04:54:34;99800.03;;;20.63;62.13
11343;BME280;5726;42.160;24.746;2023-09-12T04:57:00;99801.34;;;20.81;61.07
11343;BME280;5726;42.160;24.746;2023-09-12T04:59:25;99805.31;;;20.45;62.29
11343;BME280;5726;42.160;24.746;2023-09-12T05:01:50;99799.91;;;20.99;60.58
11343;BME280;5726;42.160;24.746;2023-09-12T05:04:16;99799.06;;;21.26;59.24
11343;BME280;5726;42.160;24.746;2023-09-12T05:06:41;99797.19;;;21.14;59.42
11343;BME280;5726;42.160;24.746;2023-09-12T05:09:07;99798.84;;;21.19;59.37
11343;BME280;5726;42.160;24.746;2023-09-12T05:11:34;99805.63;;;21.10;59.60
11343;BME280;5726;42.160;24.746;2023-09-12T05:14:00;99802.78;;;21.49;58.39
11343;BME280;5726;42.160;24.746;2023-09-12T05:16:25;99796.09;;;21.61;57.42
11343;BME280;5726;42.160;24.746;2023-09-12T05:18:50;99798.19;;;21.68;57.70
11343;BME280;5726;42.160;24.746;2023-09-12T05:21:17;99793.72;;;21.60;57.29
11343;BME280;5726;42.160;24.746;2023-09-12T05:23:42;99800.50;;;21.51;58.05
11343;BME280;5726;42.160;24.746;2023-09-12T05:26:07;99802.59;;;21.72;57.31
11343;BME280;5726;42.160;24.746;2023-09-12T05:28:34;99811.81;;;22.33;55.78
11343;BME280;5726;42.160;24.746;2023-09-12T05:30:59;99804.97;;;22.08;56.44
11343;BME280;5726;42.160;24.746;2023-09-12T05:33:24;99796.88;;;22.11;55.14
11343;BME280;5726;42.160;24.746;2023-09-12T05:35:50;99796.34;;;22.06;56.32
11343;BME280;5726;42.160;24.746;2023-09-12T05:38:15;99801.31;;;22.35;55.58
11343;BME280;5726;42.160;24.746;2023-09-12T05:40:41;99798.50;;;22.69;53.95
11343;BME280;5726;42.160;24.746;2023-09-12T05:43:06;99795.31;;;22.63;55.39
11343;BME280;5726;42.160;24.746;2023-09-12T05:45:31;99802.56;;;22.37;55.22
11343;BME280;5726;42.160;24.746;2023-09-12T05:47:58;99798.75;;;22.42;55.59
11343;BME280;5726;42.160;24.746;2023-09-12T05:50:24;99799.38;;;22.54;55.41
11343;BME280;5726;42.160;24.746;2023-09-12T05:52:49;99804.06;;;22.72;55.18
11343;BME280;5726;42.160;24.746;2023-09-12T05:55:15;99785.66;;;22.51;55.12
11343;BME280;5726;42.160;24.746;2023-09-12T05:57:41;99785.50;;;22.09;56.53
11343;BME280;5726;42.160;24.746;2023-09-12T06:00:07;99799.59;;;22.27;56.80
11343;BME280;5726;42.160;24.746;2023-09-12T06:02:37;99783.97;;;22.84;55.45
11343;BME280;5726;42.160;24.746;2023-09-12T06:05:03;99790.66;;;23.05;54.63
11343;BME280;5726;42.160;24.746;2023-09-12T06:07:28;99797.25;;;23.23;54.07
11343;BME280;5726;42.160;24.746;2023-09-12T06:09:54;99795.78;;;23.73;53.12
11343;BME280;5726;42.160;24.746;2023-09-12T06:12:19;99786.34;;;23.71;53.76
11343;BME280;5726;42.160;24.746;2023-09-12T06:14:44;99797.88;;;23.83;53.36
11343;BME280;5726;42.160;24.746;2023-09-12T06:17:10;99797.56;;;24.14;52.53
11343;BME280;5726;42.160;24.746;2023-09-12T06:19:35;99795.16;;;24.67;50.48
11343;BME280;5726;42.160;24.746;2023-09-12T06:22:01;99808.03;;;24.63;50.19
11343;BME280;5726;42.160;24.746;2023-09-12T06:24:27;99805.97;;;24.28;51.16
11343;BME280;5726;42.160;24.746;2023-09-12T06:26:52;99808.28;;;24.52;51.28
11343;BME280;5726;42.160;24.746;2023-09-12T06:29:19;99804.28;;;24.46;51.79
11343;BME280;5726;42.160;24.746;2023-09-12T06:31:44;99809.22;;;24.95;50.20
11343;BME280;5726;42.160;24.746;2023-09-12T06:34:10;99806.50;;;24.99;49.77
11343;BME280;5726;42.160;24.746;2023-09-12T06:36:36;99810.03;;;25.35;49.17
11343;BME280;5726;42.160;24.746;2023-09-12T06:39:01;99808.19;;;25.46;48.05
11343;BME280;5726;42.160;24.746;2023-09-12T06:41:30;99801.47;;;25.44;48.86
11343;BME280;5726;42.160;24.746;2023-09-12T06:43:55;99811.66;;;25.00;49.16
11343;BME280;5726;42.160;24.746;2023-09-12T06:46:23;99807.00;;;25.04;49.30
11343;BME280;5726;42.160;24.746;2023-09-12T06:48:49;99811.69;;;25.03;49.41
11343;BME280;5726;42.160;24.746;2023-09-12T06:51:15;99807.81;;;25.08;49.49
11343;BME280;5726;42.160;24.746;2023-09-12T06:53:41;99810.47;;;25.41;48.89
11343;BME280;5726;42.160;24.746;2023-09-12T06:56:07;99809.19;;;25.71;47.50
11343;BME280;5726;42.160;24.746;2023-09-12T06:58:33;99809.16;;;26.24;46.72
11343;BME280;5726;42.160;24.746;2023-09-12T07:01:02;99806.16;;;26.40;45.78
11343;BME280;5726;42.160;24.746;2023-09-12T07:03:28;99807.47;;;26.66;45.26
11343;BME280;5726;42.160;24.746;2023-09-12T07:05:53;99813.03;;;26.87;44.54
11343;BME280;5726;42.160;24.746;2023-09-12T07:08:19;99819.72;;;26.83;42.71
11343;BME280;5726;42.160;24.746;2023-09-12T07:10:47;99810.19;;;25.99;45.07
11343;BME280;5726;42.160;24.746;2023-09-12T07:13:13;99811.63;;;25.83;43.90
11343;BME280;5726;42.160;24.746;2023-09-12T07:15:38;99811.31;;;25.88;44.23
11343;BME280;5726;42.160;24.746;2023-09-12T07:18:04;99817.88;;;25.76;44.84
11343;BME280;5726;42.160;24.746;2023-09-12T07:20:32;99811.00;;;26.03;45.18
11343;BME280;5726;42.160;24.746;2023-09-12T07:22:57;99808.72;;;26.12;45.37
11343;BME280;5726;42.160;24.746;2023-09-12T07:25:22;99815.91;;;26.30;44.03
11343;BME280;5726;42.160;24.746;2023-09-12T07:27:49;99810.25;;;26.84;43.57
11343;BME280;5726;42.160;24.746;2023-09-12T07:30:15;99801.28;;;26.90;43.65
11343;BME280;5726;42.160;24.746;2023-09-12T07:32:41;99805.72;;;27.36;43.68
11343;BME280;5726;42.160;24.746;2023-09-12T07:35:07;99803.34;;;27.28;43.54
11343;BME280;5726;42.160;24.746;2023-09-12T07:37:32;99804.88;;;27.25;44.13
11343;BME280;5726;42.160;24.746;2023-09-12T07:39:57;99796.19;;;26.92;44.55
11343;BME280;5726;42.160;24.746;2023-09-12T07:42:23;99797.63;;;26.65;46.03
11343;BME280;5726;42.160;24.746;2023-09-12T07:44:49;99799.94;;;26.53;45.78
11343;BME280;5726;42.160;24.746;2023-09-12T07:47:14;99802.75;;;26.70;44.52
11343;BME280;5726;42.160;24.746;2023-09-12T07:49:40;99801.22;;;26.83;44.92
11343;BME280;5726;42.160;24.746;2023-09-12T07:52:06;99798.19;;;27.12;44.24
11343;BME280;5726;42.160;24.746;2023-09-12T07:54:32;99799.75;;;27.10;44.50
11343;BME280;5726;42.160;24.746;2023-09-12T07:56:57;99791.53;;;27.34;43.55
11343;BME280;5726;42.160;24.746;2023-09-12T07:59:22;99790.38;;;27.45;43.89
11343;BME280;5726;42.160;24.746;2023-09-12T08:01:48;99791.13;;;27.36;44.32
11343;BME280;5726;42.160;24.746;2023-09-12T08:04:14;99789.59;;;27.45;44.46
11343;BME280;5726;42.160;24.746;2023-09-12T08:06:40;99792.34;;;27.83;42.74
11343;BME280;5726;42.160;24.746;2023-09-12T08:09:06;99781.66;;;28.27;42.15
11343;BME280;5726;42.160;24.746;2023-09-12T08:11:32;99782.78;;;28.40;41.83
11343;BME280;5726;42.160;24.746;2023-09-12T08:13:57;99784.34;;;28.47;41.54
11343;BME280;5726;42.160;24.746;2023-09-12T08:16:23;99778.06;;;28.43;41.19
11343;BME280;5726;42.160;24.746;2023-09-12T08:18:48;99777.59;;;28.62;41.06
11343;BME280;5726;42.160;24.746;2023-09-12T08:21:14;99774.44;;;28.67;40.82
11343;BME280;5726;42.160;24.746;2023-09-12T08:23:39;99780.91;;;28.12;40.97
11343;BME280;5726;42.160;24.746;2023-09-12T08:26:04;99776.19;;;27.92;41.70
11343;BME280;5726;42.160;24.746;2023-09-12T08:28:30;99762.72;;;28.36;41.29
11343;BME280;5726;42.160;24.746;2023-09-12T08:30:55;99768.91;;;28.67;41.01
11343;BME280;5726;42.160;24.746;2023-09-12T08:33:21;99774.34;;;28.81;41.02
11343;BME280;5726;42.160;24.746;2023-09-12T08:35:46;99768.94;;;28.57;40.46
11343;BME280;5726;42.160;24.746;2023-09-12T08:38:11;99768.16;;;28.53;40.28
11343;BME280;5726;42.160;24.746;2023-09-12T08:40:37;99761.81;;;28.70;40.09
11343;BME280;5726;42.160;24.746;2023-09-12T08:43:03;99759.81;;;28.74;40.07
11343;BME280;5726;42.160;24.746;2023-09-12T08:45:29;99764.00;;;28.99;40.09
11343;BME280;5726;42.160;24.746;2023-09-12T08:47:57;99756.84;;;29.05;38.67
11343;BME280;5726;42.160;24.746;2023-09-12T08:50:23;99763.34;;;29.39;38.16
11343;BME280;5726;42.160;24.746;2023-09-12T08:52:50;99760.88;;;29.54;38.99
11343;BME280;5726;42.160;24.746;2023-09-12T08:55:16;99756.53;;;29.53;38.60
11343;BME280;5726;42.160;24.746;2023-09-12T08:57:42;99758.31;;;29.27;38.75
11343;BME280;5726;42.160;24.746;2023-09-12T09:00:09;99754.38;;;29.24;38.90
11343;BME280;5726;42.160;24.746;2023-09-12T09:02:38;99761.22;;;28.99;39.50
11343;BME280;5726;42.160;24.746;2023-09-12T09:05:06;99757.03;;;28.74;40.42
11343;BME280;5726;42.160;24.746;2023-09-12T09:07:33;99747.22;;;28.69;39.86
11343;BME280;5726;42.160;24.746;2023-09-12T09:10:02;99753.69;;;29.06;39.02
11343;BME280;5726;42.160;24.746;2023-09-12T09:12:30;99752.94;;;28.99;39.22
11343;BME280;5726;42.160;24.746;2023-09-12T09:14:55;99755.19;;;29.18;38.93
11343;BME280;5726;42.160;24.746;2023-09-12T09:17:21;99745.31;;;29.24;38.33
11343;BME280;5726;42.160;24.746;2023-09-12T09:19:46;99748.44;;;29.26;38.19
11343;BME280;5726;42.160;24.746;2023-09-12T09:22:13;99739.66;;;29.38;37.86
11343;BME280;5726;42.160;24.746;2023-09-12T09:24:38;99735.28;;;29.43;37.80
11343;BME280;5726;42.160;24.746;2023-09-12T09:27:04;99730.44;;;29.04;38.22
11343;BME280;5726;42.160;24.746;2023-09-12T09:29:29;99733.72;;;28.85;38.38
11343;BME280;5726;42.160;24.746;2023-09-12T09:31:58;99730.38;;;28.40;38.86
11343;BME280;5726;42.160;24.746;2023-09-12T09:34:24;99733.13;;;28.43;38.42
11343;BME280;5726;42.160;24.746;2023-09-12T09:36:54;99727.66;;;28.33;39.04
11343;BME280;5726;42.160;24.746;2023-09-12T09:39:23;99729.16;;;28.47;39.00
11343;BME280;5726;42.160;24.746;2023-09-12T09:41:50;99728.56;;;28.91;37.94
11343;BME280;5726;42.160;24.746;2023-09-12T09:44:16;99717.84;;;28.99;37.22
11343;BME280;5726;42.160;24.746;2023-09-12T09:46:46;99721.47;;;28.90;38.20
11343;BME280;5726;42.160;24.746;2023-09-12T09:49:16;99723.53;;;28.72;38.51
11343;BME280;5726;42.160;24.746;2023-09-12T09:51:43;99712.97;;;28.49;38.02
11343;BME280;5726;42.160;24.746;2023-09-12T09:54:10;99717.34;;;28.43;38.30
11343;BME280;5726;42.160;24.746;2023-09-12T09:56:49;99717.22;;;28.75;37.82
11343;BME280;5726;42.160;24.746;2023-09-12T09:59:19;99715.56;;;28.84;37.73
11343;BME280;5726;42.160;24.746;2023-09-12T10:01:46;99721.47;;;28.90;36.61
11343;BME280;5726;42.160;24.746;2023-09-12T10:04:14;99710.34;;;29.00;36.69
11343;BME280;5726;42.160;24.746;2023-09-12T10:06:43;99707.81;;;29.19;36.51
11343;BME280;5726;42.160;24.746;2023-09-12T10:09:11;99703.88;;;29.20;36.30
11343;BME280;5726;42.160;24.746;2023-09-12T10:11:38;99708.59;;;29.27;36.95
11343;BME280;5726;42.160;24.746;2023-09-12T10:14:05;99702.25;;;29.23;36.68
11343;BME280;5726;42.160;24.746;2023-09-12T10:16:33;99705.47;;;29.25;36.68
11343;BME280;5726;42.160;24.746;2023-09-12T10:19:28;99695.19;;;29.22;36.67
11343;BME280;5726;42.160;24.746;2023-09-12T10:22:06;99703.78;;;29.34;37.08
11343;BME280;5726;42.160;24.746;2023-09-12T10:24:35;99696.59;;;29.43;35.52
11343;BME280;5726;42.160;24.746;2023-09-12T10:27:01;99687.88;;;29.48;35.18
11343;BME280;5726;42.160;24.746;2023-09-12T10:29:28;99688.81;;;29.32;34.73
11343;BME280;5726;42.160;24.746;2023-09-12T10:31:54;99692.84;;;29.20;35.31
11343;BME280;5726;42.160;24.746;2023-09-12T10:34:20;99691.22;;;29.23;34.63
11343;BME280;5726;42.160;24.746;2023-09-12T10:36:46;99682.53;;;29.28;34.60
11343;BME280;5726;42.160;24.746;2023-09-12T10:39:14;99684.50;;;29.31;35.14
11343;BME280;5726;42.160;24.746;2023-09-12T10:41:40;99674.13;;;29.42;34.31
11343;BME280;5726;42.160;24.746;2023-09-12T10:44:11;99671.09;;;29.26;34.71
11343;BME280;5726;42.160;24.746;2023-09-12T10:46:38;99667.66;;;29.08;34.91
11343;BME280;5726;42.160;24.746;2023-09-12T10:49:13;99669.91;;;29.27;34.99
11343;BME280;5726;42.160;24.746;2023-09-12T10:51:47;99663.84;;;29.42;35.07
11343;BME280;5726;42.160;24.746;2023-09-12T10:54:14;99662.78;;;29.29;35.12
11343;BME280;5726;42.160;24.746;2023-09-12T10:56:40;99655.13;;;29.43;35.00
11343;BME280;5726;42.160;24.746;2023-09-12T11:01:32;99649.13;;;29.52;34.89
11343;BME280;5726;42.160;24.746;2023-09-12T11:03:58;99642.78;;;29.55;35.60
11343;BME280;5726;42.160;24.746;2023-09-12T11:06:30;99634.03;;;29.60;34.97
11343;BME280;5726;42.160;24.746;2023-09-12T11:11:41;99630.69;;;29.79;34.32
11343;BME280;5726;42.160;24.746;2023-09-12T11:14:07;99624.50;;;29.64;34.88
11343;BME280;5726;42.160;24.746;2023-09-12T11:16:33;99630.03;;;29.64;34.58
11343;BME280;5726;42.160;24.746;2023-09-12T11:19:19;99626.28;;;29.48;34.78
11343;BME280;5726;42.160;24.746;2023-09-12T11:21:53;99626.16;;;29.58;34.66
11343;BME280;5726;42.160;24.746;2023-09-12T11:24:20;99616.00;;;29.48;34.82
11343;BME280;5726;42.160;24.746;2023-09-12T11:27:00;99620.81;;;29.78;34.20
11343;BME280;5726;42.160;24.746;2023-09-12T11:29:30;99618.69;;;29.55;34.66
11343;BME280;5726;42.160;24.746;2023-09-12T11:32:00;99612.78;;;29.53;34.86
11343;BME280;5726;42.160;24.746;2023-09-12T11:34:29;99614.66;;;29.63;34.63
11343;BME280;5726;42.160;24.746;2023-09-12T11:36:59;99613.75;;;29.73;34.60
11343;BME280;5726;42.160;24.746;2023-09-12T11:39:30;99608.38;;;29.96;34.46
11343;BME280;5726;42.160;24.746;2023-09-12T11:41:57;99605.22;;;29.94;35.01
11343;BME280;5726;42.160;24.746;2023-09-12T11:44:23;99602.56;;;29.87;34.75
11343;BME280;5726;42.160;24.746;2023-09-12T11:46:49;99599.09;;;29.80;34.69
11343;BME280;5726;42.160;24.746;2023-09-12T11:49:16;99597.28;;;29.63;35.20
11343;BME280;5726;42.160;24.746;2023-09-12T11:51:53;99603.03;;;29.79;35.26
11343;BME280;5726;42.160;24.746;2023-09-12T11:54:20;99598.16;;;29.90;35.41
11343;BME280;5726;42.160;24.746;2023-09-12T11:56:49;99598.50;;;29.95;35.44
11343;BME280;5726;42.160;24.746;2023-09-12T11:59:22;99596.78;;;29.71;34.91
11343;BME280;5726;42.160;24.746;2023-09-12T12:01:48;99601.28;;;29.95;35.38
11343;BME280;5726;42.160;24.746;2023-09-12T12:04:13;99588.88;;;29.73;35.41
11343;BME280;5726;42.160;24.746;2023-09-12T12:06:39;99581.28;;;29.81;34.98
11343;BME280;5726;42.160;24.746;2023-09-12T12:09:05;99586.41;;;29.82;35.14
11343;BME280;5726;42.160;24.746;2023-09-12T12:11:31;99569.81;;;29.82;35.18
11343;BME280;5726;42.160;24.746;2023-09-12T12:13:57;99573.66;;;29.92;35.48
11343;BME280;5726;42.160;24.746;2023-09-12T12:16:25;99563.66;;;30.01;35.53
11343;BME280;5726;42.160;24.746;2023-09-12T12:18:50;99556.47;;;30.07;35.55
11343;BME280;5726;42.160;24.746;2023-09-12T12:21:19;99566.41;;;30.01;35.75
11343;BME280;5726;42.160;24.746;2023-09-12T12:23:45;99555.72;;;30.03;35.59
11343;BME280;5726;42.160;24.746;2023-09-12T12:26:10;99554.53;;;30.04;35.26
11343;BME280;5726;42.160;24.746;2023-09-12T12:28:36;99550.03;;;30.13;34.72
11343;BME280;5726;42.160;24.746;2023-09-12T12:31:02;99557.66;;;30.06;34.67
11343;BME280;5726;42.160;24.746;2023-09-12T12:33:28;99550.19;;;30.03;34.92
11343;BME280;5726;42.160;24.746;2023-09-12T12:36:00;99542.25;;;29.75;35.12
11343;BME280;5726;42.160;24.746;2023-09-12T12:38:26;99541.44;;;30.08;34.92
11343;BME280;5726;42.160;24.746;2023-09-12T12:40:51;99545.41;;;30.33;34.61
11343;BME280;5726;42.160;24.746;2023-09-12T12:43:17;99545.41;;;30.07;34.29
11343;BME280;5726;42.160;24.746;2023-09-12T12:45:58;99541.28;;;30.18;34.64
11343;BME280;5726;42.160;24.746;2023-09-12T12:48:34;99543.06;;;30.32;34.33
11343;BME280;5726;42.160;24.746;2023-09-12T12:51:12;99540.09;;;30.45;34.26
11343;BME280;5726;42.160;24.746;2023-09-12T12:56:04;99536.50;;;30.48;34.15
11343;BME280;5726;42.160;24.746;2023-09-12T12:58:29;99533.81;;;30.41;34.32
11343;BME280;5726;42.160;24.746;2023-09-12T13:00:55;99530.91;;;30.26;34.14
11343;BME280;5726;42.160;24.746;2023-09-12T13:03:20;99530.63;;;30.43;33.95
11343;BME280;5726;42.160;24.746;2023-09-12T13:05:46;99529.50;;;30.41;33.82
11343;BME280;5726;42.160;24.746;2023-09-12T13:08:11;99523.38;;;30.26;34.00